Accueil
METAR-TAF:

METAR-TAF

Aéroports :

Angers, France

Angers Loire Aéroport

latitude: 47-33-37N, longitude: 000-18-44W, altitude: 59 m

Observation

Le bulletin a été fait il y a 18 minutes, à 08:30 UTC
Vent 4 kt de nord, variant entre ouest et est/nord-est
Température 17°C
Humidité 68%
Pression 1023 hPa
Visibilité 10 km ou plus
Quelques nuages à une hauteur de 1900 ft

METAR: LFJR 230830Z AUTO 36004KT 260V060 9999 FEW019 17/11 Q1023 NOSIG

Heure: 10:48 (08:48 UTC)

Prévision

Le bulletin a été fait il y a 48 minutes, à 08:00 UTC
Prévision valable du 23 à 09 UTC au 23 à 18 UTC
Vent 5 kt de nord/nord-ouest
Visibilité 10 km ou plus
pas de nuages en-dessous de 1500 mètres et pas de cumulonimbus.

TAF: LFJR 230800Z 2309/2318 34005KT CAVOK

Observations et prévisions météorologiques de plus de 4000 aéroports (messages METAR et TAF).

Les stations disponibles sont représentées par des disques jaunes et rouges sur la carte.

Passer la souris dessus pour voir le nom de la station.

Cliquer dessus pour voir les observations et prévisions météorologiques.

Pour changer de carte: cliquez sur les boutons verts avec une croix noire pour zoomer, sur le bouton vert avec un tiret pour effectuer un zoom arrière, ou sur les flèches vertes pour les cartes adjacentes.


METAR-TAF: